Time;durP1;ratioP1;P1;durP2;ratioP2;P2;SDS_P1;SDS_P2;PMS_P1;PMS_P2;Temp;Humidity;BMP_temperature;BMP_pressure;BME280_temperature;BME280_humidity;BME280_pressure;Samples;Min_cycle;Max_cycle;Signal;HPM_P1;HPM_P2
2024/01/21 19:15:44;;;;;;;10.65;5.72;;;18.80;43.30;;;;;;5126343;27;20479;-65
2024/01/21 19:18:09;;;;;;;10.23;5.57;;;19.20;45.30;;;;;;5107235;28;20106;-66
2024/01/21 19:20:36;;;;;;;10.38;5.25;;;19.30;46.10;;;;;;5102408;28;20103;-65
2024/01/21 19:23:01;;;;;;;14.45;5.63;;;19.40;45.60;;;;;;5103733;28;20023;-66
2024/01/21 19:25:27;;;;;;;16.00;5.93;;;19.40;46.00;;;;;;5147047;22;20056;-61
2024/01/21 19:27:53;;;;;;;13.95;5.43;;;19.50;46.40;;;;;;5104857;28;20074;-61
2024/01/21 19:30:19;;;;;;;16.25;5.72;;;19.50;46.10;;;;;;5106247;28;20016;-61
2024/01/21 19:32:44;;;;;;;13.05;5.07;;;19.50;45.80;;;;;;5106353;28;20049;-61
2024/01/21 19:35:10;;;;;;;15.25;7.00;;;19.50;46.10;;;;;;5087299;28;20455;-60
2024/01/21 19:37:37;;;;;;;18.75;8.98;;;19.60;46.00;;;;;;5106901;28;20020;-61
2024/01/21 19:40:04;;;;;;;22.50;9.57;;;19.60;46.70;;;;;;5107115;28;20020;-60
2024/01/21 19:42:29;;;;;;;26.38;8.63;;;19.60;47.10;;;;;;5108607;28;20024;-57
2024/01/21 19:44:55;;;;;;;14.98;7.10;;;19.60;47.00;;;;;;5090714;28;20477;-60
2024/01/21 19:47:21;;;;;;;16.20;6.57;;;19.60;46.70;;;;;;5085814;28;20780;-60
2024/01/21 19:49:47;;;;;;;16.10;6.20;;;19.60;46.20;;;;;;5084292;28;20122;-60
2024/01/21 19:52:13;;;;;;;14.60;6.28;;;19.60;46.20;;;;;;5090254;28;20066;-60
2024/01/21 19:54:39;;;;;;;14.48;6.47;;;19.60;46.30;;;;;;5085775;28;20033;-60
2024/01/21 19:57:05;;;;;;;13.88;6.43;;;19.60;46.50;;;;;;5086068;28;20070;-61
2024/01/21 19:59:31;;;;;;;11.65;6.30;;;19.60;46.60;;;;;;5067710;28;20048;-61
2024/01/21 20:01:57;;;;;;;11.95;7.03;;;19.60;46.50;;;;;;5068352;28;20028;-62
2024/01/21 20:04:23;;;;;;;12.40;6.45;;;19.60;46.80;;;;;;5066396;28;20860;-60
2024/01/21 20:06:48;;;;;;;12.13;5.60;;;19.60;46.50;;;;;;5075192;28;20057;-61
2024/01/21 20:09:14;;;;;;;12.52;5.95;;;19.60;46.60;;;;;;5095669;28;20032;-62
2024/01/21 20:11:41;;;;;;;11.75;6.15;;;19.60;47.20;;;;;;5106315;28;20024;-61
2024/01/21 20:14:08;;;;;;;11.68;5.90;;;19.60;47.20;;;;;;5088433;28;20063;-59
2024/01/21 20:16:34;;;;;;;12.27;6.10;;;19.50;47.00;;;;;;5073665;28;20024;-61
2024/01/21 20:19:01;;;;;;;13.00;6.35;;;19.50;47.10;;;;;;5081885;28;20139;-61
2024/01/21 20:21:26;;;;;;;13.75;6.20;;;19.50;47.10;;;;;;5092006;28;20153;-61
2024/01/21 20:23:52;;;;;;;11.02;5.70;;;19.50;47.10;;;;;;5073819;28;20029;-61
2024/01/21 20:26:18;;;;;;;12.32;5.55;;;19.50;47.10;;;;;;5092191;28;20093;-61
2024/01/21 20:28:44;;;;;;;11.68;6.05;;;19.50;47.20;;;;;;5077571;28;20036;-60
2024/01/21 20:31:10;;;;;;;12.80;6.15;;;19.50;47.20;;;;;;5061703;28;20127;-62
2024/01/21 20:33:36;;;;;;;15.63;6.38;;;19.50;47.30;;;;;;5092231;28;20194;-60
2024/01/21 20:36:03;;;;;;;15.50;5.60;;;19.50;47.30;;;;;;5079367;28;20024;-61
2024/01/21 20:38:29;;;;;;;13.52;6.28;;;19.50;47.30;;;;;;5080440;28;20026;-61
2024/01/21 20:40:58;;;;;;;11.38;5.63;;;19.50;47.20;;;;;;5092290;28;20020;-61
2024/01/21 20:43:24;;;;;;;10.52;5.57;;;19.50;47.20;;;;;;5091916;28;20082;-61
2024/01/21 20:45:51;;;;;;;11.52;5.82;;;19.50;47.20;;;;;;5074705;28;20024;-61
2024/01/21 20:48:17;;;;;;;10.90;5.32;;;19.40;47.20;;;;;;5053779;28;20115;-61
2024/01/21 20:50:43;;;;;;;9.20;5.55;;;19.50;47.20;;;;;;5074265;28;20111;-61
2024/01/21 20:53:09;;;;;;;10.95;5.15;;;19.50;47.20;;;;;;5082190;28;20128;-61
2024/01/21 20:55:34;;;;;;;12.05;5.55;;;19.50;47.40;;;;;;5051554;28;20017;-61
2024/01/21 20:58:01;;;;;;;11.63;5.10;;;19.50;47.40;;;;;;5080442;28;20147;-61
2024/01/21 21:00:27;;;;;;;9.35;5.25;;;19.50;47.30;;;;;;5091684;28;20468;-62
2024/01/21 21:02:53;;;;;;;9.88;5.50;;;19.50;47.40;;;;;;5072983;28;20028;-62
2024/01/21 21:05:19;;;;;;;10.80;5.47;;;19.50;47.20;;;;;;5056252;28;20410;-61
2024/01/21 21:07:45;;;;;;;10.63;6.05;;;19.50;47.30;;;;;;5091437;28;20027;-61
2024/01/21 21:10:11;;;;;;;9.50;5.22;;;19.50;47.40;;;;;;5077416;28;20070;-62
2024/01/21 21:12:37;;;;;;;11.40;5.38;;;19.50;47.30;;;;;;5077653;28;20473;-61
2024/01/21 21:15:03;;;;;;;10.18;5.03;;;19.50;47.30;;;;;;5075150;28;20116;-61
2024/01/21 21:17:29;;;;;;;9.90;5.05;;;19.50;47.40;;;;;;5070870;28;20055;-61
2024/01/21 21:19:55;;;;;;;10.30;4.95;;;19.50;47.50;;;;;;5069456;28;20024;-61
2024/01/21 21:22:21;;;;;;;9.50;5.22;;;19.50;47.60;;;;;;5070135;28;20564;-61
2024/01/21 21:24:46;;;;;;;12.15;5.80;;;19.50;47.60;;;;;;5069823;28;20025;-62
2024/01/21 21:27:13;;;;;;;14.23;5.25;;;19.50;47.70;;;;;;5078377;28;20043;-61
2024/01/21 21:29:39;;;;;;;11.45;5.40;;;19.50;47.70;;;;;;5090877;28;20031;-61
2024/01/21 21:32:07;;;;;;;8.95;5.20;;;19.50;47.70;;;;;;5071076;28;20021;-61
2024/01/21 21:34:33;;;;;;;12.25;5.65;;;19.50;47.60;;;;;;5069837;28;20448;-61
2024/01/21 21:37:00;;;;;;;9.88;5.05;;;19.50;47.70;;;;;;5070221;28;20023;-61
2024/01/21 21:39:26;;;;;;;12.20;6.00;;;19.50;48.60;;;;;;5076040;28;20522;-61
2024/01/21 21:41:52;;;;;;;18.92;6.80;;;19.50;48.10;;;;;;5069895;28;20024;-60
2024/01/21 21:44:18;;;;;;;13.80;6.35;;;19.50;48.10;;;;;;5069776;28;20036;-62
2024/01/21 21:46:44;;;;;;;11.27;6.13;;;19.50;48.20;;;;;;5072386;28;20028;-62
2024/01/21 21:49:09;;;;;;;11.18;6.20;;;19.50;48.10;;;;;;5067614;28;20617;-61
2024/01/21 21:51:36;;;;;;;13.48;7.13;;;19.50;48.30;;;;;;5060223;28;20057;-62
2024/01/21 21:54:02;;;;;;;17.17;6.90;;;19.50;48.90;;;;;;5070950;28;20510;-61
2024/01/21 21:56:27;;;;;;;17.30;7.53;;;19.50;48.30;;;;;;5071858;28;20040;-62
2024/01/21 21:58:55;;;;;;;14.57;7.43;;;19.50;48.40;;;;;;5061214;28;20021;-62
2024/01/21 22:01:21;;;;;;;14.00;6.15;;;19.50;48.30;;;;;;5072297;28;20024;-61
2024/01/21 22:03:47;;;;;;;13.80;7.07;;;19.50;48.20;;;;;;5071747;28;20029;-62
2024/01/21 22:06:13;;;;;;;14.20;7.47;;;19.50;48.30;;;;;;5071959;28;20024;-62
2024/01/21 22:08:39;;;;;;;15.70;6.35;;;19.50;48.40;;;;;;5066422;28;20050;-59
2024/01/21 22:11:05;;;;;;;9.35;5.43;;;19.40;47.20;;;;;;5071970;28;20028;-62
2024/01/21 22:13:30;;;;;;;9.40;5.47;;;19.20;42.70;;;;;;5072024;28;20449;-61
2024/01/21 22:15:56;;;;;;;11.88;4.78;;;18.90;39.90;;;;;;5071626;28;20028;-63
2024/01/21 22:18:22;;;;;;;9.13;5.18;;;18.70;39.20;;;;;;5071943;28;20047;-62
2024/01/21 22:20:48;;;;;;;16.20;5.60;;;18.60;38.80;;;;;;5065848;28;20090;-62
2024/01/21 22:23:14;;;;;;;8.93;5.30;;;18.50;38.80;;;;;;5060305;28;20023;-61
2024/01/21 22:25:39;;;;;;;9.65;5.00;;;18.60;39.30;;;;;;5066888;28;20128;-62
2024/01/21 22:28:06;;;;;;;12.32;5.18;;;18.70;40.10;;;;;;5052489;28;20103;-62
2024/01/21 22:30:31;;;;;;;14.32;5.63;;;18.80;41.20;;;;;;5071508;28;20070;-61
2024/01/21 22:32:58;;;;;;;21.38;6.35;;;18.90;41.40;;;;;;5068602;28;20032;-61
2024/01/21 22:35:27;;;;;;;15.20;5.28;;;19.10;41.40;;;;;;5071230;28;20378;-61
2024/01/21 22:37:53;;;;;;;9.38;4.20;;;19.10;41.70;;;;;;5071526;28;20032;-62
2024/01/21 22:40:18;;;;;;;14.15;4.90;;;19.20;41.50;;;;;;5071463;28;20047;-62
2024/01/21 22:42:45;;;;;;;19.40;4.78;;;19.20;41.50;;;;;;5071217;28;20029;-62
2024/01/21 22:45:10;;;;;;;11.43;4.40;;;19.30;41.80;;;;;;5070758;28;20033;-62
2024/01/21 22:47:36;;;;;;;28.23;5.68;;;19.30;41.80;;;;;;5070125;28;20040;-61
2024/01/21 22:50:03;;;;;;;13.43;5.50;;;19.30;42.40;;;;;;5065289;28;20054;-62
2024/01/21 22:52:28;;;;;;;17.58;4.63;;;19.30;42.60;;;;;;5069406;28;20039;-62
2024/01/21 22:54:55;;;;;;;18.77;5.07;;;19.30;42.90;;;;;;5068992;28;20021;-62
2024/01/21 22:57:21;;;;;;;15.07;4.75;;;19.30;43.20;;;;;;5069927;28;20043;-61
2024/01/21 22:59:47;;;;;;;22.67;5.25;;;19.30;43.40;;;;;;5071100;28;20107;-62
2024/01/21 23:02:13;;;;;;;13.07;4.85;;;19.30;42.90;;;;;;5069471;28;20052;-62
2024/01/21 23:04:39;;;;;;;20.63;4.63;;;19.20;42.80;;;;;;5067158;28;20050;-62
2024/01/21 23:07:05;;;;;;;12.02;4.57;;;19.20;43.10;;;;;;5069142;28;20032;-62
2024/01/21 23:09:30;;;;;;;9.90;4.72;;;19.20;43.40;;;;;;5070398;28;20028;-61
2024/01/21 23:11:58;;;;;;;10.05;4.75;;;19.20;43.40;;;;;;5069783;28;20411;-60
2024/01/21 23:14:24;;;;;;;15.00;5.03;;;19.30;43.50;;;;;;5068693;28;20032;-61
2024/01/21 23:16:49;;;;;;;11.80;5.38;;;19.30;43.50;;;;;;5069511;28;20029;-60
2024/01/21 23:19:15;;;;;;;11.98;4.30;;;19.30;43.60;;;;;;5070277;28;20021;-62
2024/01/21 23:21:41;;;;;;;10.75;4.55;;;19.30;43.70;;;;;;5065026;28;20029;-62
2024/01/21 23:24:07;;;;;;;9.93;5.00;;;19.30;43.80;;;;;;5069243;28;20027;-62
2024/01/21 23:26:33;;;;;;;10.77;4.15;;;19.30;43.90;;;;;;5070024;28;20032;-62
2024/01/21 23:28:59;;;;;;;10.80;4.90;;;19.30;43.90;;;;;;5046835;28;20027;-62
2024/01/21 23:31:24;;;;;;;15.60;4.47;;;19.30;44.10;;;;;;5052121;28;20055;-62
2024/01/21 23:33:50;;;;;;;8.60;4.40;;;19.30;44.20;;;;;;5064387;28;20059;-61
2024/01/21 23:36:16;;;;;;;9.82;4.60;;;19.30;44.30;;;;;;5068511;28;20480;-62
2024/01/21 23:38:41;;;;;;;10.68;4.63;;;19.30;44.30;;;;;;5066805;28;20025;-62
2024/01/21 23:41:07;;;;;;;10.48;4.90;;;19.30;44.40;;;;;;5067921;28;20032;-61
2024/01/21 23:43:33;;;;;;;13.18;4.60;;;19.30;44.50;;;;;;5070108;28;20495;-62
2024/01/21 23:45:59;;;;;;;10.52;4.65;;;19.30;44.60;;;;;;5066569;28;20388;-62
2024/01/21 23:48:25;;;;;;;12.15;4.60;;;19.30;44.70;;;;;;5065682;28;20029;-61
2024/01/21 23:50:50;;;;;;;11.07;5.00;;;19.30;44.70;;;;;;5068910;28;20097;-62
2024/01/21 23:53:17;;;;;;;10.32;4.53;;;19.30;44.80;;;;;;5070925;28;20509;-62
2024/01/21 23:55:43;;;;;;;12.50;4.65;;;19.30;44.80;;;;;;5069167;28;20029;-62
2024/01/21 23:58:09;;;;;;;12.27;4.72;;;19.30;44.90;;;;;;5071654;28;20032;-62
